Redstar, Mississippi
Current Conditions -  °F | °C
As of 3:53 PM on Sunday 21 Dec 2014 (Local Time) from KMCB Reporting Station
Overcast Overcast  
Wind Chill: 58°   Ceiling: 2100
Heat Index: 58°   Visibility: 10mi
Dew Point: 50°   Wind: 5mph
Humidity: 75%   Direction: 140°SE
Pressure: 30.01"   Gusts: NA
Location:  31.5898°N, 90.4722°W
Report Text: KMCB 212153Z AUTO 14004KT 10SM OVC021 14/10 A3001 RMK AO2 SLP160 T01440100
Loading
Personal Weather Stations






























Interactive Weather Map New forecast layout! Learn more

10-Day Weather Forecast

Advertisements
Track Severe Weather on mobile